sensor_id;sensor_type;location;lat;lon;timestamp;temperature;humidity
17529;DHT22;8882;53.192;8.184;2024-01-11T05:16:32;-4.30;99.90
17529;DHT22;8882;53.192;8.184;2024-01-11T05:18:58;-4.20;99.90
17529;DHT22;8882;53.192;8.184;2024-01-11T05:21:24;-4.20;99.90
17529;DHT22;8882;53.192;8.184;2024-01-11T05:23:50;-4.30;99.90
17529;DHT22;8882;53.192;8.184;2024-01-11T05:26:16;-4.30;99.90
17529;DHT22;8882;53.192;8.184;2024-01-11T05:28:42;-4.30;99.90
17529;DHT22;8882;53.192;8.184;2024-01-11T05:31:13;-4.40;99.90
17529;DHT22;8882;53.192;8.184;2024-01-11T05:33:40;-4.40;99.90
17529;DHT22;8882;53.192;8.184;2024-01-11T05:36:06;-4.40;99.90
17529;DHT22;8882;53.192;8.184;2024-01-11T05:38:32;-4.30;99.90
17529;DHT22;8882;53.192;8.184;2024-01-11T05:40:57;-4.40;99.90
17529;DHT22;8882;53.192;8.184;2024-01-11T05:43:23;-4.40;99.90
17529;DHT22;8882;53.192;8.184;2024-01-11T05:45:49;-4.30;99.90
17529;DHT22;8882;53.192;8.184;2024-01-11T05:48:15;-4.30;99.90
17529;DHT22;8882;53.192;8.184;2024-01-11T05:50:42;-4.20;99.90
17529;DHT22;8882;53.192;8.184;2024-01-11T05:53:07;-4.20;99.90
17529;DHT22;8882;53.192;8.184;2024-01-11T05:55:33;-4.20;99.90
17529;DHT22;8882;53.192;8.184;2024-01-11T05:57:58;-4.30;99.90
17529;DHT22;8882;53.192;8.184;2024-01-11T06:00:24;-4.30;99.90
17529;DHT22;8882;53.192;8.184;2024-01-11T06:02:49;-4.20;99.90
17529;DHT22;8882;53.192;8.184;2024-01-11T06:05:15;-4.10;99.90
17529;DHT22;8882;53.192;8.184;2024-01-11T06:07:40;-4.10;99.90
17529;DHT22;8882;53.192;8.184;2024-01-11T06:10:07;-4.00;99.90
17529;DHT22;8882;53.192;8.184;2024-01-11T06:12:34;-4.00;99.90
17529;DHT22;8882;53.192;8.184;2024-01-11T06:15:00;-3.90;99.90
17529;DHT22;8882;53.192;8.184;2024-01-11T06:17:26;-3.80;99.90
17529;DHT22;8882;53.192;8.184;2024-01-11T06:19:52;-3.80;99.90
17529;DHT22;8882;53.192;8.184;2024-01-11T06:22:17;-3.70;99.90
17529;DHT22;8882;53.192;8.184;2024-01-11T06:24:43;-3.70;99.90
17529;DHT22;8882;53.192;8.184;2024-01-11T06:27:09;-3.60;99.90
17529;DHT22;8882;53.192;8.184;2024-01-11T06:29:35;-3.60;99.90
17529;DHT22;8882;53.192;8.184;2024-01-11T06:32:01;-3.50;99.90
17529;DHT22;8882;53.192;8.184;2024-01-11T06:34:26;-3.50;99.90
17529;DHT22;8882;53.192;8.184;2024-01-11T06:36:53;-3.50;99.90
17529;DHT22;8882;53.192;8.184;2024-01-11T06:39:19;-3.50;99.90
17529;DHT22;8882;53.192;8.184;2024-01-11T06:41:44;-3.50;99.90
17529;DHT22;8882;53.192;8.184;2024-01-11T06:44:10;-3.50;99.90
17529;DHT22;8882;53.192;8.184;2024-01-11T06:46:35;-3.50;99.90
17529;DHT22;8882;53.192;8.184;2024-01-11T06:49:01;-3.40;99.90
17529;DHT22;8882;53.192;8.184;2024-01-11T06:51:27;-3.40;99.90
17529;DHT22;8882;53.192;8.184;2024-01-11T06:53:53;-3.40;99.90
17529;DHT22;8882;53.192;8.184;2024-01-11T06:56:20;-3.40;99.90
17529;DHT22;8882;53.192;8.184;2024-01-11T06:58:46;-3.40;99.90
17529;DHT22;8882;53.192;8.184;2024-01-11T07:01:12;-3.40;99.90
17529;DHT22;8882;53.192;8.184;2024-01-11T07:03:38;-3.30;99.90
17529;DHT22;8882;53.192;8.184;2024-01-11T07:06:04;-3.20;99.90
17529;DHT22;8882;53.192;8.184;2024-01-11T07:08:30;-3.20;99.90
17529;DHT22;8882;53.192;8.184;2024-01-11T07:10:56;-3.10;99.90
17529;DHT22;8882;53.192;8.184;2024-01-11T07:13:22;-3.20;99.90
17529;DHT22;8882;53.192;8.184;2024-01-11T07:15:48;-3.20;99.90
17529;DHT22;8882;53.192;8.184;2024-01-11T07:18:13;-3.10;99.90
17529;DHT22;8882;53.192;8.184;2024-01-11T07:20:40;-3.10;99.90
17529;DHT22;8882;53.192;8.184;2024-01-11T07:23:05;-3.10;99.90
17529;DHT22;8882;53.192;8.184;2024-01-11T07:25:31;-3.10;99.90
17529;DHT22;8882;53.192;8.184;2024-01-11T07:27:57;-3.10;99.90
17529;DHT22;8882;53.192;8.184;2024-01-11T07:30:23;-3.10;99.90
17529;DHT22;8882;53.192;8.184;2024-01-11T07:32:48;-3.10;99.90
17529;DHT22;8882;53.192;8.184;2024-01-11T07:35:14;-3.10;99.90
17529;DHT22;8882;53.192;8.184;2024-01-11T07:37:39;-3.00;99.90
17529;DHT22;8882;53.192;8.184;2024-01-11T07:40:08;-2.90;99.90
17529;DHT22;8882;53.192;8.184;2024-01-11T07:42:37;-3.00;99.90
17529;DHT22;8882;53.192;8.184;2024-01-11T07:45:04;-2.80;99.90
17529;DHT22;8882;53.192;8.184;2024-01-11T07:47:31;-2.90;99.90
17529;DHT22;8882;53.192;8.184;2024-01-11T07:49:56;-2.90;99.90
17529;DHT22;8882;53.192;8.184;2024-01-11T07:52:21;-2.80;99.90
17529;DHT22;8882;53.192;8.184;2024-01-11T07:54:47;-2.90;99.90
17529;DHT22;8882;53.192;8.184;2024-01-11T07:57:12;-2.80;99.90
17529;DHT22;8882;53.192;8.184;2024-01-11T07:59:38;-2.90;99.90
17529;DHT22;8882;53.192;8.184;2024-01-11T08:02:04;-2.90;99.90
17529;DHT22;8882;53.192;8.184;2024-01-11T08:04:31;-2.80;99.90
17529;DHT22;8882;53.192;8.184;2024-01-11T08:06:56;-2.70;99.90
17529;DHT22;8882;53.192;8.184;2024-01-11T08:09:25;-2.70;99.90
17529;DHT22;8882;53.192;8.184;2024-01-11T08:11:51;-2.70;99.90
17529;DHT22;8882;53.192;8.184;2024-01-11T08:14:17;-2.60;99.90
17529;DHT22;8882;53.192;8.184;2024-01-11T08:16:43;-2.60;99.90
17529;DHT22;8882;53.192;8.184;2024-01-11T08:19:09;-2.50;99.90
17529;DHT22;8882;53.192;8.184;2024-01-11T08:21:35;-2.50;99.90
17529;DHT22;8882;53.192;8.184;2024-01-11T08:24:01;-2.50;99.90
17529;DHT22;8882;53.192;8.184;2024-01-11T08:26:28;-2.50;99.90
17529;DHT22;8882;53.192;8.184;2024-01-11T08:28:55;-2.40;99.90
17529;DHT22;8882;53.192;8.184;2024-01-11T08:31:20;-2.40;99.90
17529;DHT22;8882;53.192;8.184;2024-01-11T08:33:46;-2.40;99.90
17529;DHT22;8882;53.192;8.184;2024-01-11T08:36:12;-2.30;99.90
17529;DHT22;8882;53.192;8.184;2024-01-11T08:38:39;-2.30;99.90
17529;DHT22;8882;53.192;8.184;2024-01-11T08:41:06;-2.30;99.90
17529;DHT22;8882;53.192;8.184;2024-01-11T08:43:32;-2.30;99.90
17529;DHT22;8882;53.192;8.184;2024-01-11T08:45:58;-2.20;99.90
17529;DHT22;8882;53.192;8.184;2024-01-11T08:48:24;-2.20;99.90
17529;DHT22;8882;53.192;8.184;2024-01-11T08:50:50;-2.20;99.90
17529;DHT22;8882;53.192;8.184;2024-01-11T08:53:15;-2.20;99.90
17529;DHT22;8882;53.192;8.184;2024-01-11T08:55:41;-2.20;99.90
17529;DHT22;8882;53.192;8.184;2024-01-11T08:58:07;-2.20;99.90
17529;DHT22;8882;53.192;8.184;2024-01-11T09:00:32;-2.10;99.90
17529;DHT22;8882;53.192;8.184;2024-01-11T09:02:58;-2.10;99.90
17529;DHT22;8882;53.192;8.184;2024-01-11T09:05:23;-2.00;99.90
17529;DHT22;8882;53.192;8.184;2024-01-11T09:07:49;-2.00;99.90
17529;DHT22;8882;53.192;8.184;2024-01-11T09:10:14;-1.90;99.90
17529;DHT22;8882;53.192;8.184;2024-01-11T09:12:40;-1.90;99.90
17529;DHT22;8882;53.192;8.184;2024-01-11T09:15:06;-1.90;99.90
17529;DHT22;8882;53.192;8.184;2024-01-11T09:17:31;-1.80;99.90
17529;DHT22;8882;53.192;8.184;2024-01-11T09:19:58;-1.70;99.90
17529;DHT22;8882;53.192;8.184;2024-01-11T09:22:23;-1.70;99.90
17529;DHT22;8882;53.192;8.184;2024-01-11T09:24:48;-1.60;99.90
17529;DHT22;8882;53.192;8.184;2024-01-11T09:27:14;-1.60;99.90
17529;DHT22;8882;53.192;8.184;2024-01-11T09:29:46;-1.50;99.90
17529;DHT22;8882;53.192;8.184;2024-01-11T09:32:14;-1.50;99.90
17529;DHT22;8882;53.192;8.184;2024-01-11T09:34:40;-1.50;99.90
17529;DHT22;8882;53.192;8.184;2024-01-11T09:37:05;-1.50;99.90
17529;DHT22;8882;53.192;8.184;2024-01-11T09:39:31;-1.40;99.90
17529;DHT22;8882;53.192;8.184;2024-01-11T09:42:07;-1.40;99.90
17529;DHT22;8882;53.192;8.184;2024-01-11T09:44:35;-1.30;99.90
17529;DHT22;8882;53.192;8.184;2024-01-11T09:47:01;-1.30;99.90
17529;DHT22;8882;53.192;8.184;2024-01-11T09:49:30;-1.30;99.90
17529;DHT22;8882;53.192;8.184;2024-01-11T09:51:57;-1.30;99.90
17529;DHT22;8882;53.192;8.184;2024-01-11T09:54:23;-1.20;99.90
17529;DHT22;8882;53.192;8.184;2024-01-11T09:56:50;-1.20;99.90
17529;DHT22;8882;53.192;8.184;2024-01-11T09:59:18;-1.10;99.90
17529;DHT22;8882;53.192;8.184;2024-01-11T10:01:45;-1.10;99.90
17529;DHT22;8882;53.192;8.184;2024-01-11T10:04:12;-1.10;99.90
17529;DHT22;8882;53.192;8.184;2024-01-11T10:06:40;-1.00;99.90
17529;DHT22;8882;53.192;8.184;2024-01-11T10:09:06;-1.00;99.90
17529;DHT22;8882;53.192;8.184;2024-01-11T10:11:32;-1.00;99.90
17529;DHT22;8882;53.192;8.184;2024-01-11T10:14:00;-1.00;99.90
17529;DHT22;8882;53.192;8.184;2024-01-11T10:16:28;-0.90;99.90
17529;DHT22;8882;53.192;8.184;2024-01-11T10:18:54;-0.90;99.90
17529;DHT22;8882;53.192;8.184;2024-01-11T10:21:20;-0.90;99.90
17529;DHT22;8882;53.192;8.184;2024-01-11T10:23:45;-0.80;99.90
17529;DHT22;8882;53.192;8.184;2024-01-11T10:26:11;-0.80;99.90
17529;DHT22;8882;53.192;8.184;2024-01-11T10:28:36;-0.80;99.90
17529;DHT22;8882;53.192;8.184;2024-01-11T10:31:03;-0.80;99.90
17529;DHT22;8882;53.192;8.184;2024-01-11T10:33:33;-0.70;99.90
17529;DHT22;8882;53.192;8.184;2024-01-11T10:36:00;-0.70;99.90
17529;DHT22;8882;53.192;8.184;2024-01-11T10:38:26;-0.70;99.90
17529;DHT22;8882;53.192;8.184;2024-01-11T10:40:53;-0.60;99.90
17529;DHT22;8882;53.192;8.184;2024-01-11T10:43:21;-0.60;99.90
17529;DHT22;8882;53.192;8.184;2024-01-11T10:45:48;-0.60;99.90
17529;DHT22;8882;53.192;8.184;2024-01-11T10:48:21;-0.60;99.90
17529;DHT22;8882;53.192;8.184;2024-01-11T10:50:50;-0.60;99.90
17529;DHT22;8882;53.192;8.184;2024-01-11T10:53:52;-0.60;99.90
17529;DHT22;8882;53.192;8.184;2024-01-11T10:56:19;-0.50;99.90
17529;DHT22;8882;53.192;8.184;2024-01-11T10:58:45;-0.50;99.90
17529;DHT22;8882;53.192;8.184;2024-01-11T11:01:12;-0.40;99.90
17529;DHT22;8882;53.192;8.184;2024-01-11T11:03:39;-0.40;99.90
17529;DHT22;8882;53.192;8.184;2024-01-11T11:06:09;-0.30;99.90
17529;DHT22;8882;53.192;8.184;2024-01-11T11:08:36;-0.30;99.90
17529;DHT22;8882;53.192;8.184;2024-01-11T11:11:03;-0.30;99.90
17529;DHT22;8882;53.192;8.184;2024-01-11T11:13:31;-0.20;99.90
17529;DHT22;8882;53.192;8.184;2024-01-11T11:15:57;-0.20;99.90
17529;DHT22;8882;53.192;8.184;2024-01-11T11:18:24;-0.10;99.90
17529;DHT22;8882;53.192;8.184;2024-01-11T11:20:50;-0.10;99.90
17529;DHT22;8882;53.192;8.184;2024-01-11T11:23:17;-0.10;99.90
17529;DHT22;8882;53.192;8.184;2024-01-11T11:25:46;0.00;99.90
17529;DHT22;8882;53.192;8.184;2024-01-11T11:28:12;0.00;99.90
17529;DHT22;8882;53.192;8.184;2024-01-11T11:30:40;0.10;99.90
17529;DHT22;8882;53.192;8.184;2024-01-11T11:33:11;0.10;99.90
17529;DHT22;8882;53.192;8.184;2024-01-11T11:35:40;0.10;99.90
17529;DHT22;8882;53.192;8.184;2024-01-11T11:38:06;0.10;99.90
17529;DHT22;8882;53.192;8.184;2024-01-11T11:40:33;0.20;99.90
17529;DHT22;8882;53.192;8.184;2024-01-11T11:43:02;0.20;99.90
17529;DHT22;8882;53.192;8.184;2024-01-11T11:45:30;0.20;99.90
17529;DHT22;8882;53.192;8.184;2024-01-11T11:47:57;0.20;99.90
17529;DHT22;8882;53.192;8.184;2024-01-11T11:50:22;0.30;99.90
17529;DHT22;8882;53.192;8.184;2024-01-11T11:52:56;0.30;99.90
17529;DHT22;8882;53.192;8.184;2024-01-11T11:55:23;0.30;99.90
17529;DHT22;8882;53.192;8.184;2024-01-11T11:57:51;0.30;99.90
17529;DHT22;8882;53.192;8.184;2024-01-11T12:00:17;0.40;99.90
17529;DHT22;8882;53.192;8.184;2024-01-11T12:02:43;0.40;99.90
17529;DHT22;8882;53.192;8.184;2024-01-11T12:05:08;0.40;99.90
17529;DHT22;8882;53.192;8.184;2024-01-11T12:07:34;0.40;99.90
17529;DHT22;8882;53.192;8.184;2024-01-11T12:10:00;0.40;99.90
17529;DHT22;8882;53.192;8.184;2024-01-11T12:12:25;0.50;99.90
17529;DHT22;8882;53.192;8.184;2024-01-11T12:14:53;0.50;99.90
17529;DHT22;8882;53.192;8.184;2024-01-11T12:17:19;0.50;99.90
17529;DHT22;8882;53.192;8.184;2024-01-11T12:19:44;0.50;99.90
17529;DHT22;8882;53.192;8.184;2024-01-11T12:22:10;0.50;99.90
17529;DHT22;8882;53.192;8.184;2024-01-11T12:24:36;0.50;99.90
17529;DHT22;8882;53.192;8.184;2024-01-11T12:27:02;0.60;99.90
17529;DHT22;8882;53.192;8.184;2024-01-11T12:29:30;0.60;99.90
17529;DHT22;8882;53.192;8.184;2024-01-11T12:31:57;0.60;99.90
17529;DHT22;8882;53.192;8.184;2024-01-11T12:34:24;0.60;99.90
17529;DHT22;8882;53.192;8.184;2024-01-11T12:36:50;0.60;99.90
17529;DHT22;8882;53.192;8.184;2024-01-11T12:39:16;0.60;99.90
17529;DHT22;8882;53.192;8.184;2024-01-11T12:41:42;0.60;99.90
17529;DHT22;8882;53.192;8.184;2024-01-11T12:44:08;0.60;99.90
17529;DHT22;8882;53.192;8.184;2024-01-11T12:46:35;0.70;99.90
17529;DHT22;8882;53.192;8.184;2024-01-11T12:49:00;0.70;99.90
17529;DHT22;8882;53.192;8.184;2024-01-11T12:51:26;0.70;99.90
17529;DHT22;8882;53.192;8.184;2024-01-11T12:53:52;0.70;99.90
17529;DHT22;8882;53.192;8.184;2024-01-11T12:56:18;0.70;99.90
17529;DHT22;8882;53.192;8.184;2024-01-11T12:58:46;0.70;99.90
17529;DHT22;8882;53.192;8.184;2024-01-11T13:01:12;0.70;99.90
17529;DHT22;8882;53.192;8.184;2024-01-11T13:03:43;0.70;99.90
17529;DHT22;8882;53.192;8.184;2024-01-11T13:06:08;0.80;99.90
17529;DHT22;8882;53.192;8.184;2024-01-11T13:08:34;0.80;99.90
17529;DHT22;8882;53.192;8.184;2024-01-11T13:11:02;0.80;99.90
17529;DHT22;8882;53.192;8.184;2024-01-11T13:13:39;0.80;99.90
17529;DHT22;8882;53.192;8.184;2024-01-11T13:16:04;0.80;99.90
17529;DHT22;8882;53.192;8.184;2024-01-11T13:18:39;0.80;99.90
17529;DHT22;8882;53.192;8.184;2024-01-11T13:21:05;0.80;99.90
17529;DHT22;8882;53.192;8.184;2024-01-11T13:23:32;0.80;99.90
17529;DHT22;8882;53.192;8.184;2024-01-11T13:25:57;0.80;99.90
17529;DHT22;8882;53.192;8.184;2024-01-11T13:28:23;0.90;99.90
17529;DHT22;8882;53.192;8.184;2024-01-11T13:30:49;0.90;99.90
17529;DHT22;8882;53.192;8.184;2024-01-11T13:33:14;0.90;99.90
17529;DHT22;8882;53.192;8.184;2024-01-11T13:35:43;0.90;99.90
17529;DHT22;8882;53.192;8.184;2024-01-11T13:38:08;1.00;99.90
17529;DHT22;8882;53.192;8.184;2024-01-11T13:40:34;0.90;99.90
17529;DHT22;8882;53.192;8.184;2024-01-11T13:43:00;0.90;99.90
17529;DHT22;8882;53.192;8.184;2024-01-11T13:45:29;0.90;99.90
17529;DHT22;8882;53.192;8.184;2024-01-11T13:47:59;1.00;99.90
17529;DHT22;8882;53.192;8.184;2024-01-11T13:50:25;1.00;99.90
17529;DHT22;8882;53.192;8.184;2024-01-11T13:52:50;1.00;99.90
17529;DHT22;8882;53.192;8.184;2024-01-11T13:55:16;1.00;99.90
17529;DHT22;8882;53.192;8.184;2024-01-11T13:57:49;1.00;99.90
17529;DHT22;8882;53.192;8.184;2024-01-11T14:00:15;1.00;99.90
17529;DHT22;8882;53.192;8.184;2024-01-11T14:02:43;1.00;99.90
17529;DHT22;8882;53.192;8.184;2024-01-11T14:05:10;1.10;99.90
17529;DHT22;8882;53.192;8.184;2024-01-11T14:07:38;1.10;99.90
17529;DHT22;8882;53.192;8.184;2024-01-11T14:10:05;1.10;99.90
17529;DHT22;8882;53.192;8.184;2024-01-11T14:12:31;1.10;99.90
17529;DHT22;8882;53.192;8.184;2024-01-11T14:14:57;1.10;99.90
17529;DHT22;8882;53.192;8.184;2024-01-11T14:17:22;1.10;99.90
17529;DHT22;8882;53.192;8.184;2024-01-11T14:19:48;1.10;99.90
17529;DHT22;8882;53.192;8.184;2024-01-11T14:22:14;1.10;99.90
17529;DHT22;8882;53.192;8.184;2024-01-11T14:24:39;1.10;99.90
17529;DHT22;8882;53.192;8.184;2024-01-11T14:27:06;1.10;99.90
17529;DHT22;8882;53.192;8.184;2024-01-11T14:29:31;1.10;99.90
17529;DHT22;8882;53.192;8.184;2024-01-11T14:31:57;1.10;99.90
17529;DHT22;8882;53.192;8.184;2024-01-11T14:34:22;1.10;99.90
17529;DHT22;8882;53.192;8.184;2024-01-11T14:36:48;1.10;99.90
17529;DHT22;8882;53.192;8.184;2024-01-11T14:39:13;1.10;99.90
17529;DHT22;8882;53.192;8.184;2024-01-11T14:41:39;1.10;99.90
17529;DHT22;8882;53.192;8.184;2024-01-11T14:44:05;1.10;99.90
17529;DHT22;8882;53.192;8.184;2024-01-11T14:46:30;1.10;99.90
17529;DHT22;8882;53.192;8.184;2024-01-11T14:48:56;1.10;99.90
17529;DHT22;8882;53.192;8.184;2024-01-11T14:51:21;1.10;99.90
17529;DHT22;8882;53.192;8.184;2024-01-11T14:53:47;1.20;99.90
17529;DHT22;8882;53.192;8.184;2024-01-11T14:56:13;1.20;99.90
17529;DHT22;8882;53.192;8.184;2024-01-11T14:58:38;1.20;99.90
17529;DHT22;8882;53.192;8.184;2024-01-11T15:01:04;1.40;99.90
17529;DHT22;8882;53.192;8.184;2024-01-11T15:03:29;1.40;99.90
17529;DHT22;8882;53.192;8.184;2024-01-11T15:05:55;1.50;99.90
17529;DHT22;8882;53.192;8.184;2024-01-11T15:08:21;1.60;99.90
17529;DHT22;8882;53.192;8.184;2024-01-11T15:10:47;1.70;99.90
17529;DHT22;8882;53.192;8.184;2024-01-11T15:13:13;1.80;99.90
17529;DHT22;8882;53.192;8.184;2024-01-11T15:15:38;1.80;99.90
17529;DHT22;8882;53.192;8.184;2024-01-11T15:18:05;1.90;99.90
17529;DHT22;8882;53.192;8.184;2024-01-11T15:20:31;1.90;99.90
17529;DHT22;8882;53.192;8.184;2024-01-11T15:22:56;1.90;99.90
17529;DHT22;8882;53.192;8.184;2024-01-11T15:25:22;1.80;99.90
17529;DHT22;8882;53.192;8.184;2024-01-11T15:27:49;1.90;99.90
17529;DHT22;8882;53.192;8.184;2024-01-11T15:30:15;1.90;99.90
17529;DHT22;8882;53.192;8.184;2024-01-11T15:32:40;1.90;99.90
17529;DHT22;8882;53.192;8.184;2024-01-11T15:35:06;1.90;99.90
17529;DHT22;8882;53.192;8.184;2024-01-11T15:37:36;1.90;99.90
17529;DHT22;8882;53.192;8.184;2024-01-11T15:40:02;2.00;99.90
17529;DHT22;8882;53.192;8.184;2024-01-11T15:42:29;1.90;99.90
17529;DHT22;8882;53.192;8.184;2024-01-11T15:44:55;2.00;99.90
17529;DHT22;8882;53.192;8.184;2024-01-11T15:47:20;2.00;99.90
17529;DHT22;8882;53.192;8.184;2024-01-11T15:49:46;2.00;99.90
17529;DHT22;8882;53.192;8.184;2024-01-11T15:52:11;2.00;99.90
17529;DHT22;8882;53.192;8.184;2024-01-11T15:54:37;1.90;99.90
17529;DHT22;8882;53.192;8.184;2024-01-11T15:57:03;1.90;99.90
17529;DHT22;8882;53.192;8.184;2024-01-11T15:59:32;1.90;99.90
17529;DHT22;8882;53.192;8.184;2024-01-11T16:01:57;1.90;99.90
17529;DHT22;8882;53.192;8.184;2024-01-11T16:04:23;2.00;99.90
17529;DHT22;8882;53.192;8.184;2024-01-11T16:06:49;2.00;99.90
17529;DHT22;8882;53.192;8.184;2024-01-11T16:09:14;2.00;99.90
17529;DHT22;8882;53.192;8.184;2024-01-11T16:11:40;2.00;99.90
17529;DHT22;8882;53.192;8.184;2024-01-11T16:14:06;2.00;99.90
17529;DHT22;8882;53.192;8.184;2024-01-11T16:16:34;2.00;99.90
17529;DHT22;8882;53.192;8.184;2024-01-11T16:19:00;2.00;99.90
17529;DHT22;8882;53.192;8.184;2024-01-11T16:21:25;2.00;99.90
17529;DHT22;8882;53.192;8.184;2024-01-11T16:23:59;2.00;99.90
17529;DHT22;8882;53.192;8.184;2024-01-11T16:26:24;2.00;99.90
17529;DHT22;8882;53.192;8.184;2024-01-11T16:28:50;1.90;99.90
17529;DHT22;8882;53.192;8.184;2024-01-11T16:31:19;1.80;99.90
17529;DHT22;8882;53.192;8.184;2024-01-11T16:33:45;1.60;99.90
17529;DHT22;8882;53.192;8.184;2024-01-11T16:36:11;1.60;99.90
17529;DHT22;8882;53.192;8.184;2024-01-11T16:38:37;1.60;99.90
17529;DHT22;8882;53.192;8.184;2024-01-11T16:41:03;1.50;99.90
17529;DHT22;8882;53.192;8.184;2024-01-11T16:43:29;1.40;99.90
17529;DHT22;8882;53.192;8.184;2024-01-11T16:45:56;1.40;99.90
17529;DHT22;8882;53.192;8.184;2024-01-11T16:48:22;1.40;99.90
17529;DHT22;8882;53.192;8.184;2024-01-11T16:50:47;1.30;99.90
17529;DHT22;8882;53.192;8.184;2024-01-11T16:53:13;1.30;99.90
17529;DHT22;8882;53.192;8.184;2024-01-11T16:55:40;1.30;99.90
17529;DHT22;8882;53.192;8.184;2024-01-11T16:58:08;1.30;99.90
17529;DHT22;8882;53.192;8.184;2024-01-11T17:00:39;1.30;99.90
17529;DHT22;8882;53.192;8.184;2024-01-11T17:03:05;1.30;99.90
17529;DHT22;8882;53.192;8.184;2024-01-11T17:05:32;1.20;99.90
17529;DHT22;8882;53.192;8.184;2024-01-11T17:07:58;1.20;99.90
17529;DHT22;8882;53.192;8.184;2024-01-11T17:10:24;1.20;99.90
17529;DHT22;8882;53.192;8.184;2024-01-11T17:12:49;1.20;99.90
17529;DHT22;8882;53.192;8.184;2024-01-11T17:15:15;1.20;99.90
17529;DHT22;8882;53.192;8.184;2024-01-11T17:17:41;1.20;99.90
17529;DHT22;8882;53.192;8.184;2024-01-11T17:20:08;1.20;99.90
17529;DHT22;8882;53.192;8.184;2024-01-11T17:22:35;1.20;99.90
17529;DHT22;8882;53.192;8.184;2024-01-11T17:25:00;1.20;99.90
17529;DHT22;8882;53.192;8.184;2024-01-11T17:27:26;1.20;99.90
17529;DHT22;8882;53.192;8.184;2024-01-11T17:29:51;1.20;99.90
17529;DHT22;8882;53.192;8.184;2024-01-11T17:32:17;1.20;99.90
17529;DHT22;8882;53.192;8.184;2024-01-11T17:34:43;1.20;99.90
17529;DHT22;8882;53.192;8.184;2024-01-11T17:37:09;1.20;99.90
17529;DHT22;8882;53.192;8.184;2024-01-11T17:39:35;1.20;99.90
17529;DHT22;8882;53.192;8.184;2024-01-11T17:42:00;1.20;99.90
17529;DHT22;8882;53.192;8.184;2024-01-11T17:44:27;1.20;99.90
17529;DHT22;8882;53.192;8.184;2024-01-11T17:46:53;1.10;99.90
17529;DHT22;8882;53.192;8.184;2024-01-11T17:49:18;1.10;99.90
17529;DHT22;8882;53.192;8.184;2024-01-11T17:51:44;1.10;99.90
17529;DHT22;8882;53.192;8.184;2024-01-11T17:54:11;1.10;99.90
17529;DHT22;8882;53.192;8.184;2024-01-11T17:56:41;1.10;99.90
17529;DHT22;8882;53.192;8.184;2024-01-11T17:59:10;1.10;99.90
17529;DHT22;8882;53.192;8.184;2024-01-11T18:01:36;1.10;99.90
17529;DHT22;8882;53.192;8.184;2024-01-11T18:04:02;1.10;99.90
17529;DHT22;8882;53.192;8.184;2024-01-11T18:06:27;1.10;99.90
17529;DHT22;8882;53.192;8.184;2024-01-11T18:08:53;1.10;99.90
17529;DHT22;8882;53.192;8.184;2024-01-11T18:11:18;1.00;99.90
17529;DHT22;8882;53.192;8.184;2024-01-11T18:13:44;1.00;99.90
17529;DHT22;8882;53.192;8.184;2024-01-11T18:16:09;1.10;99.90
17529;DHT22;8882;53.192;8.184;2024-01-11T18:18:35;1.00;99.90
17529;DHT22;8882;53.192;8.184;2024-01-11T18:21:01;1.10;99.90
17529;DHT22;8882;53.192;8.184;2024-01-11T18:23:27;1.00;99.90
17529;DHT22;8882;53.192;8.184;2024-01-11T18:25:53;1.00;99.90
17529;DHT22;8882;53.192;8.184;2024-01-11T18:28:19;1.00;99.90
17529;DHT22;8882;53.192;8.184;2024-01-11T18:30:45;1.00;99.90
17529;DHT22;8882;53.192;8.184;2024-01-11T18:33:10;1.00;99.90
17529;DHT22;8882;53.192;8.184;2024-01-11T18:35:36;1.00;99.90
17529;DHT22;8882;53.192;8.184;2024-01-11T18:38:02;1.00;99.90
17529;DHT22;8882;53.192;8.184;2024-01-11T18:40:27;0.90;99.90
17529;DHT22;8882;53.192;8.184;2024-01-11T18:42:53;0.90;99.90
17529;DHT22;8882;53.192;8.184;2024-01-11T18:45:20;0.90;99.90
17529;DHT22;8882;53.192;8.184;2024-01-11T18:47:45;0.90;99.90
17529;DHT22;8882;53.192;8.184;2024-01-11T18:50:11;0.90;99.90
17529;DHT22;8882;53.192;8.184;2024-01-11T18:52:37;0.90;99.90
17529;DHT22;8882;53.192;8.184;2024-01-11T18:55:03;0.90;99.90
17529;DHT22;8882;53.192;8.184;2024-01-11T18:57:29;0.80;99.90
17529;DHT22;8882;53.192;8.184;2024-01-11T18:59:54;0.80;99.90
17529;DHT22;8882;53.192;8.184;2024-01-11T19:02:21;0.80;99.90
17529;DHT22;8882;53.192;8.184;2024-01-11T19:04:47;0.80;99.90
17529;DHT22;8882;53.192;8.184;2024-01-11T19:07:13;0.80;99.90
17529;DHT22;8882;53.192;8.184;2024-01-11T19:09:38;0.80;99.90
17529;DHT22;8882;53.192;8.184;2024-01-11T19:12:04;0.70;99.90
17529;DHT22;8882;53.192;8.184;2024-01-11T19:14:30;0.70;99.90
17529;DHT22;8882;53.192;8.184;2024-01-11T19:16:55;0.70;99.90
17529;DHT22;8882;53.192;8.184;2024-01-11T19:19:21;0.60;99.90
17529;DHT22;8882;53.192;8.184;2024-01-11T19:21:46;0.70;99.90
17529;DHT22;8882;53.192;8.184;2024-01-11T19:24:12;0.60;99.90
17529;DHT22;8882;53.192;8.184;2024-01-11T19:26:41;0.60;99.90
17529;DHT22;8882;53.192;8.184;2024-01-11T19:29:08;0.60;99.90
17529;DHT22;8882;53.192;8.184;2024-01-11T19:31:34;0.60;99.90
17529;DHT22;8882;53.192;8.184;2024-01-11T19:33:59;0.50;99.90
17529;DHT22;8882;53.192;8.184;2024-01-11T19:36:25;0.50;99.90
17529;DHT22;8882;53.192;8.184;2024-01-11T19:38:51;0.50;99.90
17529;DHT22;8882;53.192;8.184;2024-01-11T19:41:20;0.50;99.90
17529;DHT22;8882;53.192;8.184;2024-01-11T19:43:46;0.40;99.90
17529;DHT22;8882;53.192;8.184;2024-01-11T19:46:16;0.40;99.90
17529;DHT22;8882;53.192;8.184;2024-01-11T19:48:42;0.40;99.90
17529;DHT22;8882;53.192;8.184;2024-01-11T19:51:11;0.40;99.90
17529;DHT22;8882;53.192;8.184;2024-01-11T19:53:37;0.40;99.90
17529;DHT22;8882;53.192;8.184;2024-01-11T19:56:03;0.40;99.90
17529;DHT22;8882;53.192;8.184;2024-01-11T19:58:30;0.40;99.90
17529;DHT22;8882;53.192;8.184;2024-01-11T20:00:55;0.30;99.90
17529;DHT22;8882;53.192;8.184;2024-01-11T20:03:21;0.30;99.90
17529;DHT22;8882;53.192;8.184;2024-01-11T20:05:46;0.30;99.90
17529;DHT22;8882;53.192;8.184;2024-01-11T20:08:12;0.30;99.90
17529;DHT22;8882;53.192;8.184;2024-01-11T20:10:37;0.30;99.90
17529;DHT22;8882;53.192;8.184;2024-01-11T20:13:04;0.20;99.90
17529;DHT22;8882;53.192;8.184;2024-01-11T20:15:29;0.20;99.90
17529;DHT22;8882;53.192;8.184;2024-01-11T20:17:56;0.20;99.90
17529;DHT22;8882;53.192;8.184;2024-01-11T20:20:21;0.20;99.90
17529;DHT22;8882;53.192;8.184;2024-01-11T20:22:47;0.10;99.90
17529;DHT22;8882;53.192;8.184;2024-01-11T20:25:13;0.10;99.90
17529;DHT22;8882;53.192;8.184;2024-01-11T20:27:39;0.20;99.90
17529;DHT22;8882;53.192;8.184;2024-01-11T20:30:05;0.10;99.90
17529;DHT22;8882;53.192;8.184;2024-01-11T20:32:33;0.20;99.90
17529;DHT22;8882;53.192;8.184;2024-01-11T20:34:58;1.50;99.90
17529;DHT22;8882;53.192;8.184;2024-01-11T20:37:24;1.50;99.90
17529;DHT22;8882;53.192;8.184;2024-01-11T20:39:49;1.20;99.90
17529;DHT22;8882;53.192;8.184;2024-01-11T20:42:15;1.20;99.90
17529;DHT22;8882;53.192;8.184;2024-01-11T20:44:40;1.00;99.90
17529;DHT22;8882;53.192;8.184;2024-01-11T20:47:06;0.90;99.90
17529;DHT22;8882;53.192;8.184;2024-01-11T20:49:32;0.80;99.90
17529;DHT22;8882;53.192;8.184;2024-01-11T20:51:58;0.80;99.90
17529;DHT22;8882;53.192;8.184;2024-01-11T20:54:25;0.70;99.90
17529;DHT22;8882;53.192;8.184;2024-01-11T20:56:51;0.70;99.90
17529;DHT22;8882;53.192;8.184;2024-01-11T20:59:17;0.70;99.90
17529;DHT22;8882;53.192;8.184;2024-01-11T21:01:42;0.70;99.90
17529;DHT22;8882;53.192;8.184;2024-01-11T21:04:08;0.70;99.90